createdAt,value
2022-09-24T00:01:39.382Z,5.83
2022-09-24T00:04:14.350Z,5.13
2022-09-24T00:06:45.461Z,9.20
2022-09-24T00:09:16.087Z,6.43
2022-09-24T00:11:45.573Z,6.90
2022-09-24T00:14:13.352Z,6.07
2022-09-24T00:16:43.746Z,5.23
2022-09-24T00:19:13.319Z,4.67
2022-09-24T00:21:41.862Z,5.20
2022-09-24T00:24:35.934Z,5.90
2022-09-24T00:27:06.989Z,4.27
2022-09-24T00:29:35.372Z,5.30
2022-09-24T00:32:05.337Z,6.43
2022-09-24T00:34:32.319Z,4.87
2022-09-24T00:36:59.537Z,5.27
2022-09-24T00:39:26.689Z,4.73
2022-09-24T00:41:53.794Z,6.30
2022-09-24T00:44:45.371Z,5.13
2022-09-24T00:47:32.095Z,4.03
2022-09-24T00:50:32.044Z,4.90
2022-09-24T00:53:13.912Z,5.77
2022-09-24T00:55:45.938Z,4.70
2022-09-24T00:58:14.397Z,5.53
2022-09-24T01:00:45.695Z,8.30
2022-09-24T01:03:23.131Z,6.43
2022-09-24T01:05:50.744Z,4.60
2022-09-24T01:08:21.019Z,8.37
2022-09-24T01:11:36.755Z,3.93
2022-09-24T01:15:01.162Z,8.40
2022-09-24T01:18:04.366Z,8.00
2022-09-24T01:21:09.178Z,4.90
2022-09-24T01:24:18.356Z,3.60
2022-09-24T01:27:20.048Z,5.93
2022-09-24T01:30:12.346Z,6.43
2022-09-24T01:33:00.888Z,4.20
2022-09-24T01:35:53.642Z,4.77
2022-09-24T01:38:34.473Z,6.03
2022-09-24T01:41:03.443Z,4.20
2022-09-24T01:43:32.846Z,5.27
2022-09-24T01:46:06.437Z,5.90
2022-09-24T01:48:37.270Z,5.30
2022-09-24T01:51:27.798Z,3.73
2022-09-24T01:54:18.039Z,4.60
2022-09-24T01:57:31.968Z,3.23
2022-09-24T02:00:15.019Z,4.07
2022-09-24T02:02:58.177Z,3.87
2022-09-24T02:06:03.859Z,6.77
2022-09-24T02:08:39.022Z,3.67
2022-09-24T02:11:14.690Z,7.33
2022-09-24T02:14:14.428Z,4.63
2022-09-24T02:16:48.960Z,4.43
2022-09-24T02:19:25.109Z,3.67
2022-09-24T02:21:52.756Z,6.90
2022-09-24T02:24:57.167Z,5.43
2022-09-24T02:27:29.294Z,4.47
2022-09-24T02:29:58.880Z,5.87
2022-09-24T02:32:31.105Z,6.30
2022-09-24T02:35:03.728Z,3.97
2022-09-24T02:37:40.558Z,4.00
2022-09-24T02:40:11.914Z,3.23
2022-09-24T02:42:41.042Z,5.07
2022-09-24T02:45:09.040Z,3.67
2022-09-24T02:47:36.926Z,4.00
2022-09-24T02:50:04.665Z,3.87
2022-09-24T02:52:31.669Z,4.20
2022-09-24T02:54:58.635Z,4.93
2022-09-24T02:57:25.649Z,4.63
2022-09-24T02:59:52.592Z,7.37
2022-09-24T03:02:19.553Z,5.97
2022-09-24T03:04:47.128Z,6.77
2022-09-24T03:07:15.024Z,6.20
2022-09-24T03:09:42.005Z,7.20
2022-09-24T03:12:09.542Z,4.90
2022-09-24T03:14:36.483Z,6.33
2022-09-24T03:17:04.080Z,7.57
2022-09-24T03:19:31.027Z,4.63
2022-09-24T03:21:58.012Z,6.20
2022-09-24T03:24:24.939Z,6.30
2022-09-24T03:26:51.927Z,5.87
2022-09-24T03:29:38.922Z,4.70
2022-09-24T03:32:05.915Z,3.93
2022-09-24T03:34:32.849Z,4.00
2022-09-24T03:36:59.800Z,7.93
2022-09-24T03:39:26.731Z,5.57
2022-09-24T03:41:53.698Z,4.53
2022-09-24T03:44:20.751Z,5.60
2022-09-24T03:46:48.203Z,8.40
2022-09-24T03:49:15.299Z,8.83
2022-09-24T03:51:42.261Z,8.10
2022-09-24T03:54:09.287Z,6.07
2022-09-24T03:56:36.272Z,4.73
2022-09-24T03:59:03.487Z,6.97
2022-09-24T04:01:33.167Z,5.47
2022-09-24T04:04:00.393Z,6.40
2022-09-24T04:06:27.355Z,5.30
2022-09-24T04:08:54.664Z,4.17
2022-09-24T04:11:22.697Z,4.40
2022-09-24T04:13:50.108Z,6.63
2022-09-24T04:16:17.972Z,6.00
2022-09-24T04:18:47.967Z,7.60
2022-09-24T04:21:15.207Z,9.50
2022-09-24T04:23:42.467Z,5.00
2022-09-24T04:26:09.563Z,4.80
2022-09-24T04:28:36.546Z,6.23
2022-09-24T04:31:04.017Z,3.67
2022-09-24T04:33:31.014Z,4.60
2022-09-24T04:35:58.035Z,7.17
2022-09-24T04:38:25.051Z,4.93
2022-09-24T04:40:52.052Z,5.03
2022-09-24T04:43:19.341Z,5.17
2022-09-24T04:45:46.779Z,5.47
2022-09-24T04:48:14.808Z,8.60
2022-09-24T04:50:45.727Z,9.60
2022-09-24T04:53:14.299Z,5.13
2022-09-24T04:55:41.888Z,8.47
2022-09-24T04:58:09.966Z,8.23
2022-09-24T05:00:37.284Z,7.77
2022-09-24T05:03:04.773Z,7.53
2022-09-24T05:05:33.933Z,4.50
2022-09-24T05:08:01.872Z,7.73
2022-09-24T05:10:31.599Z,5.33
2022-09-24T05:12:59.346Z,8.97
2022-09-24T05:15:26.761Z,5.70
2022-09-24T05:17:53.719Z,5.40
2022-09-24T05:20:20.886Z,11.53
2022-09-24T05:22:50.554Z,4.20
2022-09-24T05:25:21.168Z,8.23
2022-09-24T05:27:54.862Z,6.03
2022-09-24T05:30:25.550Z,6.67
2022-09-24T05:32:53.041Z,7.37
2022-09-24T05:35:24.507Z,6.00
2022-09-24T05:37:53.732Z,6.13
2022-09-24T05:40:40.346Z,5.60
2022-09-24T05:43:07.526Z,8.83
2022-09-24T05:45:34.463Z,5.37
2022-09-24T05:48:01.671Z,5.97
2022-09-24T05:50:28.753Z,6.97
2022-09-24T05:52:56.078Z,5.90
2022-09-24T05:55:23.096Z,5.13
2022-09-24T05:57:50.121Z,8.83
2022-09-24T06:00:17.149Z,9.07
2022-09-24T06:02:44.268Z,6.40
2022-09-24T06:05:12.618Z,6.97
2022-09-24T06:07:39.902Z,5.50
2022-09-24T06:10:07.649Z,7.10
2022-09-24T06:12:34.943Z,5.67
2022-09-24T06:15:02.849Z,6.07
2022-09-24T06:17:31.172Z,4.27
2022-09-24T06:19:58.128Z,6.47
2022-09-24T06:22:28.643Z,7.37
2022-09-24T06:24:55.970Z,7.27
2022-09-24T06:27:23.076Z,7.33
2022-09-24T06:29:50.142Z,9.43
2022-09-24T06:32:18.169Z,8.07
2022-09-24T06:34:45.421Z,5.43
2022-09-24T06:37:12.365Z,6.60
2022-09-24T06:39:39.356Z,7.87
2022-09-24T06:42:07.091Z,8.20
2022-09-24T06:44:35.092Z,6.00
2022-09-24T06:47:02.307Z,7.40
2022-09-24T06:49:33.781Z,7.00
2022-09-24T06:52:02.499Z,7.93
2022-09-24T06:54:29.469Z,7.37
2022-09-24T06:56:56.401Z,11.03
2022-09-24T06:59:23.362Z,6.80
2022-09-24T07:01:50.406Z,5.33
2022-09-24T07:04:19.375Z,10.23
2022-09-24T07:07:18.440Z,6.23
2022-09-24T07:09:45.363Z,6.17
2022-09-24T07:12:12.500Z,6.47
2022-09-24T07:14:39.430Z,5.27
2022-09-24T07:17:06.394Z,6.90
2022-09-24T07:19:34.942Z,4.53
2022-09-24T07:22:01.907Z,6.83
2022-09-24T07:24:28.828Z,5.27
2022-09-24T07:26:56.360Z,6.10
2022-09-24T07:29:23.427Z,6.77
2022-09-24T07:31:50.710Z,9.17
2022-09-24T07:34:17.717Z,7.33
2022-09-24T07:36:44.660Z,7.60
2022-09-24T07:39:11.940Z,7.87
2022-09-24T07:41:42.452Z,7.10
2022-09-24T07:44:10.021Z,8.33
2022-09-24T07:46:37.322Z,7.17
2022-09-24T07:49:04.527Z,10.77
2022-09-24T07:51:31.788Z,7.40
2022-09-24T07:53:59.089Z,8.63
2022-09-24T07:56:26.165Z,7.70
2022-09-24T07:58:53.861Z,10.13
2022-09-24T08:01:21.159Z,9.17
2022-09-24T08:03:48.366Z,6.10
2022-09-24T08:06:15.399Z,9.40
2022-09-24T08:08:43.392Z,6.70
2022-09-24T08:11:13.389Z,8.63
2022-09-24T08:13:40.461Z,8.53
2022-09-24T08:16:07.508Z,9.10
2022-09-24T08:18:34.866Z,6.57
2022-09-24T08:21:11.845Z,8.47
2022-09-24T08:23:40.122Z,6.57
2022-09-24T08:26:07.310Z,11.50
2022-09-24T08:28:35.098Z,10.40
2022-09-24T08:31:09.105Z,8.60
2022-09-24T08:33:37.809Z,11.87
2022-09-24T08:36:09.013Z,7.90
2022-09-24T08:38:36.730Z,12.43
2022-09-24T08:41:56.956Z,6.57
2022-09-24T08:45:03.524Z,5.40
2022-09-24T08:48:09.047Z,5.43
2022-09-24T08:50:39.512Z,7.60
2022-09-24T08:53:31.469Z,10.70
2022-09-24T08:56:01.891Z,9.00
2022-09-24T08:59:00.464Z,6.43
2022-09-24T09:02:13.426Z,7.50
2022-09-24T09:04:59.768Z,6.63
2022-09-24T09:07:40.299Z,7.23
2022-09-24T09:10:27.815Z,8.07
2022-09-24T09:13:07.238Z,9.27
2022-09-24T09:15:42.357Z,4.43
2022-09-24T09:18:32.747Z,4.27
2022-09-24T09:21:27.775Z,6.03
2022-09-24T09:23:57.969Z,7.20
2022-09-24T09:26:27.207Z,8.27
2022-09-24T09:29:01.413Z,4.70
2022-09-24T09:31:56.363Z,7.27
2022-09-24T09:34:43.093Z,9.07
2022-09-24T09:37:48.137Z,7.27
2022-09-24T09:40:29.088Z,5.00
2022-09-24T09:43:14.224Z,4.97
2022-09-24T09:46:01.749Z,6.27
2022-09-24T09:48:39.775Z,5.90
2022-09-24T09:51:16.641Z,5.73
2022-09-24T09:54:00.158Z,12.40
2022-09-24T09:56:36.886Z,9.50
2022-09-24T09:59:12.947Z,6.63
2022-09-24T10:01:46.098Z,5.23
2022-09-24T10:04:35.912Z,10.70
2022-09-24T10:07:31.497Z,5.40
2022-09-24T10:10:24.217Z,5.70
2022-09-24T10:13:12.445Z,6.67
2022-09-24T10:16:03.682Z,6.50
2022-09-24T10:18:34.722Z,8.75
2022-09-24T10:21:09.023Z,5.00
2022-09-24T10:23:47.277Z,5.03
2022-09-24T10:26:15.185Z,6.37
2022-09-24T10:29:11.096Z,5.68
2022-09-24T10:31:42.038Z,5.67
2022-09-24T10:34:28.939Z,7.30
2022-09-24T10:37:04.246Z,5.50
2022-09-24T10:39:34.264Z,5.15
2022-09-24T10:42:01.373Z,4.90
2022-09-24T10:44:37.412Z,8.93
2022-09-24T10:47:25.783Z,5.80
2022-09-24T10:50:35.451Z,4.10
2022-09-24T10:53:12.035Z,7.53
2022-09-24T10:56:34.321Z,7.90
2022-09-24T10:59:40.004Z,8.93
2022-09-24T11:03:09.603Z,7.88
2022-09-24T11:05:45.276Z,27.23
2022-09-24T11:08:46.671Z,8.77
2022-09-24T11:11:42.009Z,7.85
2022-09-24T11:14:45.021Z,8.35
2022-09-24T11:17:49.701Z,5.25
2022-09-24T11:20:50.302Z,4.57
2022-09-24T11:24:27.836Z,4.50
2022-09-24T11:27:45.001Z,4.50
2022-09-24T11:30:21.711Z,8.50
2022-09-24T11:33:26.434Z,5.22
2022-09-24T11:36:28.785Z,6.75
2022-09-24T11:39:43.490Z,7.93
2022-09-24T11:43:07.511Z,5.30
2022-09-24T11:45:59.166Z,9.23
2022-09-24T11:48:51.642Z,7.13
2022-09-24T11:52:31.568Z,5.43
2022-09-24T11:55:40.123Z,7.88
2022-09-24T11:58:27.022Z,5.95
2022-09-24T12:01:03.515Z,7.07
2022-09-24T12:04:24.047Z,5.05
2022-09-24T12:06:59.993Z,4.95
2022-09-24T12:10:17.115Z,5.07
2022-09-24T12:12:48.788Z,6.57
2022-09-24T12:15:22.306Z,4.90
2022-09-24T12:18:02.694Z,7.43
2022-09-24T12:20:32.302Z,6.13
2022-09-24T12:23:15.343Z,6.75
2022-09-24T12:25:46.968Z,7.53
2022-09-24T12:28:39.297Z,5.43
2022-09-24T12:31:55.068Z,4.50
2022-09-24T12:34:57.932Z,4.20
2022-09-24T12:37:38.565Z,6.80
2022-09-24T12:40:50.865Z,6.43
2022-09-24T12:44:17.149Z,7.82
2022-09-24T12:46:57.277Z,5.63
2022-09-24T12:49:27.209Z,6.90
2022-09-24T12:52:01.544Z,8.90
2022-09-24T12:54:38.378Z,7.65
2022-09-24T12:57:26.296Z,13.38
2022-09-24T13:00:01.156Z,8.30
2022-09-24T13:02:53.894Z,7.45
2022-09-24T13:05:27.075Z,6.13
2022-09-24T13:08:19.897Z,5.40
2022-09-24T13:11:06.442Z,4.45
2022-09-24T13:13:43.370Z,5.65
2022-09-24T13:16:21.195Z,5.85
2022-09-24T13:18:56.422Z,5.70
2022-09-24T13:21:27.841Z,7.38
2022-09-24T13:23:56.497Z,11.15
2022-09-24T13:26:33.962Z,5.18
2022-09-24T13:29:05.657Z,8.43
2022-09-24T13:31:49.307Z,9.23
2022-09-24T13:34:32.241Z,6.43
2022-09-24T13:37:34.720Z,4.18
2022-09-24T13:40:16.731Z,6.30
2022-09-24T13:43:16.165Z,11.75
2022-09-24T13:45:45.266Z,5.28
2022-09-24T13:49:03.620Z,3.40
2022-09-24T13:51:36.562Z,3.55
2022-09-24T13:54:39.759Z,6.63
2022-09-24T13:57:19.797Z,5.10
2022-09-24T13:59:46.757Z,4.28
2022-09-24T14:02:28.243Z,4.22
2022-09-24T14:05:00.812Z,4.75
2022-09-24T14:07:28.733Z,3.38
2022-09-24T14:10:14.564Z,4.57
2022-09-24T14:12:41.733Z,4.10
2022-09-24T14:15:18.394Z,3.85
2022-09-24T14:17:59.478Z,4.72
2022-09-24T14:20:34.377Z,7.68
2022-09-24T14:23:04.402Z,4.80
2022-09-24T14:25:36.546Z,3.47
2022-09-24T14:28:05.331Z,4.32
2022-09-24T14:30:37.208Z,6.50
2022-09-24T14:33:13.633Z,4.22
2022-09-24T14:35:45.075Z,4.53
2022-09-24T14:38:29.639Z,4.18
2022-09-24T14:41:06.659Z,3.80
2022-09-24T14:43:47.327Z,6.72
2022-09-24T14:46:27.393Z,4.00
2022-09-24T14:49:27.795Z,3.53
2022-09-24T14:52:05.115Z,4.95
2022-09-24T14:54:40.271Z,3.47
2022-09-24T14:57:19.355Z,5.90
2022-09-24T14:59:47.431Z,8.57
2022-09-24T15:02:35.041Z,4.93
2022-09-24T15:05:07.141Z,6.57
2022-09-24T15:07:35.429Z,5.75
2022-09-24T15:10:06.254Z,5.28
2022-09-24T15:12:37.975Z,5.15
2022-09-24T15:15:16.858Z,5.47
2022-09-24T15:17:47.106Z,6.32
2022-09-24T15:20:14.786Z,5.20
2022-09-24T15:22:41.857Z,6.70
2022-09-24T15:25:10.369Z,6.53
2022-09-24T15:27:39.391Z,5.50
2022-09-24T15:30:12.704Z,8.18
2022-09-24T15:32:39.684Z,6.78
2022-09-24T15:35:09.276Z,4.60
2022-09-24T15:37:39.407Z,5.78
2022-09-24T15:40:30.668Z,7.70
2022-09-24T15:42:57.749Z,4.78
2022-09-24T15:45:25.765Z,7.07
2022-09-24T15:47:53.911Z,7.83
2022-09-24T15:50:23.495Z,7.00
2022-09-24T15:52:56.562Z,6.20
2022-09-24T15:55:24.081Z,5.20
2022-09-24T15:57:51.197Z,9.87
2022-09-24T16:00:22.568Z,5.72
2022-09-24T16:02:54.878Z,7.15
2022-09-24T16:05:26.461Z,8.50
2022-09-24T16:07:53.574Z,5.87
2022-09-24T16:10:20.663Z,6.72
2022-09-24T16:12:47.654Z,6.77
2022-09-24T16:15:16.751Z,8.95
2022-09-24T16:17:44.090Z,8.83
2022-09-24T16:20:11.334Z,9.53
2022-09-24T16:22:38.500Z,10.30
2022-09-24T16:25:06.506Z,10.73
2022-09-24T16:27:35.226Z,9.40
2022-09-24T16:30:04.067Z,8.50
2022-09-24T16:32:31.014Z,8.80
2022-09-24T16:34:57.966Z,8.60
2022-09-24T16:37:25.600Z,9.90
2022-09-24T16:39:52.808Z,10.57
2022-09-24T16:42:19.784Z,11.77
2022-09-24T16:44:46.835Z,15.10
2022-09-24T16:47:16.347Z,18.97
2022-09-24T16:49:43.374Z,15.53
2022-09-24T16:52:10.665Z,18.00
2022-09-24T16:54:37.661Z,21.63
2022-09-24T16:57:06.063Z,22.73
2022-09-24T16:59:33.693Z,22.13
2022-09-24T17:02:01.148Z,16.30
2022-09-24T17:04:28.372Z,13.47
2022-09-24T17:06:59.129Z,15.63
2022-09-24T17:09:44.712Z,14.70
2022-09-24T17:12:11.804Z,14.87
2022-09-24T17:14:39.037Z,13.33
2022-09-24T17:17:06.733Z,13.83
2022-09-24T17:19:33.750Z,19.07
2022-09-24T17:22:00.992Z,12.67
2022-09-24T17:24:28.104Z,18.83
2022-09-24T17:26:56.694Z,23.93
2022-09-24T17:29:30.319Z,13.37
2022-09-24T17:31:58.392Z,15.23
2022-09-24T17:34:25.451Z,15.50
2022-09-24T17:36:52.400Z,13.23
2022-09-24T17:39:19.440Z,10.50
2022-09-24T17:41:46.452Z,13.10
2022-09-24T17:44:13.540Z,12.23
2022-09-24T17:46:40.892Z,14.00
2022-09-24T17:49:08.027Z,13.27
2022-09-24T17:51:36.688Z,14.23
2022-09-24T17:54:11.614Z,10.63
2022-09-24T17:56:38.742Z,20.43
2022-09-24T17:59:09.000Z,15.20
2022-09-24T18:01:38.748Z,10.53
2022-09-24T18:04:11.258Z,12.37
2022-09-24T18:06:40.730Z,11.80
2022-09-24T18:09:10.424Z,11.53
2022-09-24T18:11:51.595Z,12.53
2022-09-24T18:14:22.739Z,11.97
2022-09-24T18:16:50.379Z,14.27
2022-09-24T18:19:18.071Z,11.13
2022-09-24T18:21:46.488Z,8.97
2022-09-24T18:24:14.458Z,13.10
2022-09-24T18:26:41.609Z,10.57
2022-09-24T18:29:15.543Z,12.13
2022-09-24T18:31:43.859Z,11.80
2022-09-24T18:34:15.446Z,14.50
2022-09-24T18:36:45.083Z,14.40
2022-09-24T18:39:17.693Z,12.43
2022-09-24T18:41:47.227Z,13.33
2022-09-24T18:44:14.210Z,13.07
2022-09-24T18:46:42.034Z,14.23
2022-09-24T18:49:11.949Z,10.83
2022-09-24T18:51:39.092Z,12.23
2022-09-24T18:54:12.397Z,18.43
2022-09-24T18:56:40.107Z,15.17
2022-09-24T18:59:19.411Z,15.10
2022-09-24T19:01:48.401Z,15.40
2022-09-24T19:04:16.047Z,18.17
2022-09-24T19:06:46.054Z,12.90
2022-09-24T19:09:17.201Z,14.87
2022-09-24T19:11:45.493Z,15.57
2022-09-24T19:14:14.901Z,12.77
2022-09-24T19:16:41.872Z,16.53
2022-09-24T19:19:11.282Z,18.53
2022-09-24T19:21:40.501Z,19.33
2022-09-24T19:24:07.940Z,26.63
2022-09-24T19:26:36.709Z,24.53
2022-09-24T19:29:04.994Z,29.17
2022-09-24T19:31:42.424Z,17.67
2022-09-24T19:34:13.031Z,21.10
2022-09-24T19:36:45.054Z,16.10
2022-09-24T19:39:17.412Z,13.93
2022-09-24T19:41:44.658Z,16.57
2022-09-24T19:44:12.205Z,10.07
2022-09-24T19:46:40.216Z,10.23
2022-09-24T19:49:07.434Z,10.67
2022-09-24T19:51:35.892Z,11.00
2022-09-24T19:54:08.383Z,9.60
2022-09-24T19:56:36.559Z,9.97
2022-09-24T19:59:05.909Z,10.77
2022-09-24T20:01:33.708Z,18.07
2022-09-24T20:04:06.357Z,11.87
2022-09-24T20:06:35.905Z,11.60
2022-09-24T20:09:03.440Z,12.73
2022-09-24T20:11:32.628Z,11.93
2022-09-24T20:14:01.225Z,13.53
2022-09-24T20:16:33.212Z,12.00
2022-09-24T20:19:02.231Z,10.33
2022-09-24T20:21:35.036Z,11.33
2022-09-24T20:24:03.963Z,9.53
2022-09-24T20:26:50.147Z,9.50
2022-09-24T20:29:19.694Z,11.40
2022-09-24T20:31:53.207Z,10.37
2022-09-24T20:34:31.628Z,9.83
2022-09-24T20:36:59.274Z,9.33
2022-09-24T20:39:26.446Z,9.77
2022-09-24T20:41:53.621Z,11.07
2022-09-24T20:44:22.051Z,11.37
2022-09-24T20:46:49.192Z,11.67
2022-09-24T20:49:23.076Z,13.83
2022-09-24T20:51:57.357Z,10.23
2022-09-24T20:54:26.717Z,11.50
2022-09-24T20:56:53.773Z,11.47
2022-09-24T20:59:20.769Z,9.90
2022-09-24T21:01:49.415Z,10.80
2022-09-24T21:04:17.272Z,12.03
2022-09-24T21:06:44.223Z,11.77
2022-09-24T21:09:11.550Z,12.17
2022-09-24T21:11:38.659Z,9.13
2022-09-24T21:14:09.822Z,15.27
2022-09-24T21:16:37.305Z,10.47
2022-09-24T21:19:07.756Z,8.03
2022-09-24T21:21:38.544Z,11.93
2022-09-24T21:24:10.116Z,8.37
2022-09-24T21:26:39.702Z,9.67
2022-09-24T21:29:17.129Z,9.10
2022-09-24T21:31:47.302Z,7.80
2022-09-24T21:34:18.041Z,10.47
2022-09-24T21:36:45.989Z,10.03
2022-09-24T21:39:24.054Z,10.40
2022-09-24T21:41:52.920Z,9.40
2022-09-24T21:44:21.413Z,8.73
2022-09-24T21:46:52.444Z,10.40
2022-09-24T21:49:20.439Z,11.53
2022-09-24T21:51:47.617Z,7.40
2022-09-24T21:54:18.134Z,7.97
2022-09-24T21:56:46.509Z,12.73
2022-09-24T21:59:33.738Z,7.87
2022-09-24T22:02:02.367Z,11.80
2022-09-24T22:04:31.801Z,9.50
2022-09-24T22:06:59.341Z,6.70
2022-09-24T22:09:26.777Z,7.93
2022-09-24T22:11:59.072Z,7.70
2022-09-24T22:14:26.607Z,8.93
2022-09-24T22:16:54.118Z,12.17
2022-09-24T22:19:21.191Z,8.27
2022-09-24T22:21:48.250Z,10.23
2022-09-24T22:24:15.961Z,7.77
2022-09-24T22:26:43.010Z,8.23
2022-09-24T22:29:10.022Z,8.60
2022-09-24T22:31:37.034Z,8.30
2022-09-24T22:34:22.791Z,6.97
2022-09-24T22:36:50.017Z,9.80
2022-09-24T22:39:17.043Z,8.43
2022-09-24T22:41:44.041Z,7.63
2022-09-24T22:44:12.176Z,9.73
2022-09-24T22:46:41.261Z,8.43
2022-09-24T22:49:10.239Z,7.77
2022-09-24T22:51:38.409Z,9.73
2022-09-24T22:54:05.971Z,10.63
2022-09-24T22:56:34.831Z,9.73
2022-09-24T22:59:02.242Z,9.83
2022-09-24T23:01:38.567Z,8.97
2022-09-24T23:04:06.144Z,7.93
2022-09-24T23:06:34.608Z,7.73
2022-09-24T23:09:01.940Z,10.83
2022-09-24T23:11:33.822Z,8.57
2022-09-24T23:14:10.984Z,10.10
2022-09-24T23:16:38.498Z,14.73
2022-09-24T23:19:13.333Z,10.33
2022-09-24T23:21:40.419Z,11.43
2022-09-24T23:24:15.158Z,10.43
2022-09-24T23:26:42.478Z,8.33
2022-09-24T23:29:11.071Z,8.70
2022-09-24T23:31:38.881Z,9.50
2022-09-24T23:34:07.530Z,7.60
2022-09-24T23:36:36.086Z,9.53
2022-09-24T23:39:04.878Z,9.60
2022-09-24T23:41:32.151Z,7.97
2022-09-24T23:43:59.806Z,9.83
2022-09-24T23:46:27.527Z,8.77
2022-09-24T23:48:55.581Z,9.93
2022-09-24T23:51:23.223Z,6.87
2022-09-24T23:53:50.465Z,6.63
2022-09-24T23:56:18.041Z,8.93
2022-09-24T23:58:45.979Z,8.83
